createdAt,value
2018-03-01T21:44:17.525Z,-7.30
2018-03-01T21:46:57.931Z,-7.30
2018-03-01T21:49:27.058Z,-7.40
2018-03-01T21:51:55.413Z,-7.40
2018-03-01T21:54:23.934Z,-7.40
2018-03-01T21:56:52.547Z,-7.40
2018-03-01T21:59:21.025Z,-7.40
2018-03-01T22:01:49.390Z,-7.50
2018-03-01T22:04:17.735Z,-7.50
2018-03-01T22:06:46.133Z,-7.50
2018-03-01T22:09:14.497Z,-7.60
2018-03-01T22:11:42.845Z,-7.60
2018-03-01T22:14:11.212Z,-7.70
2018-03-01T22:16:40.348Z,-7.60
2018-03-01T22:19:08.779Z,-7.70
2018-03-01T22:21:37.936Z,-7.70
2018-03-01T22:24:06.287Z,-7.70
2018-03-01T22:26:34.909Z,-7.70
2018-03-01T22:29:03.711Z,-7.70
2018-03-01T22:31:32.495Z,-7.70
2018-03-01T22:34:00.886Z,-7.80
2018-03-01T22:36:30.579Z,-7.70
2018-03-01T22:38:59.248Z,-7.70
2018-03-01T22:41:28.109Z,-7.70
2018-03-01T22:43:56.489Z,-7.70
2018-03-01T22:46:25.040Z,-7.80
2018-03-01T22:48:54.508Z,-7.80
2018-03-01T22:51:22.900Z,-7.90
2018-03-01T22:53:51.248Z,-7.90
2018-03-01T22:56:19.669Z,-7.80
2018-03-01T22:58:48.820Z,-7.80
2018-03-01T23:01:17.181Z,-7.80
2018-03-01T23:03:45.704Z,-7.80
2018-03-01T23:06:14.051Z,-7.80
2018-03-01T23:08:43.758Z,-7.90
2018-03-01T23:11:12.214Z,-7.90
2018-03-01T23:13:40.578Z,-8.00
2018-03-01T23:16:10.159Z,-8.00
2018-03-01T23:18:38.819Z,-8.00
2018-03-01T23:21:08.226Z,-8.10
2018-03-01T23:23:36.565Z,-8.10
2018-03-01T23:26:04.932Z,-8.10
2018-03-01T23:28:33.715Z,-8.10
2018-03-01T23:31:02.163Z,-8.10
2018-03-01T23:33:31.139Z,-8.10
2018-03-01T23:35:59.625Z,-8.10
2018-03-01T23:38:28.454Z,-8.20
2018-03-01T23:40:56.856Z,-8.20
2018-03-01T23:43:25.344Z,-8.20
2018-03-01T23:45:53.684Z,-8.10
2018-03-01T23:48:23.333Z,-8.20
2018-03-01T23:50:52.560Z,-8.20
2018-03-01T23:53:21.697Z,-8.20
2018-03-01T23:55:50.395Z,-8.20
2018-03-01T23:58:18.804Z,-8.30
